Haleeka, Pennsylvania
Current Conditions -  °F | °C
As of 9:54 PM on Monday 22 Dec 2014 (Local Time) from KIPT Reporting Station
Light Rain Light Rain  
Wind Chill: 29°   Ceiling: 800
Heat Index: 33°   Visibility: 5mi
Dew Point: 30°   Wind: 5mph
Humidity: 89%   Direction: 110°ESE
Pressure: 30.15"   Gusts: NA
Location:  41.3181°N, 77.075°W
Report Text: KIPT 230254Z 11004KT 5SM -RA BR BKN008 OVC012 01/M01 A3015 RMK AO2 RAB14E18B40FZRAE40 SLP215 P0000 60003 I1000 I3002 T00061011 58010
Loading
Personal Weather Stations






























Interactive Weather Map New forecast layout! Learn more

10-Day Weather Forecast

Advertisements
Track Severe Weather on mobile